Time;durP1;ratioP1;P1;durP2;ratioP2;P2;SDS_P1;SDS_P2;PMS_P1;PMS_P2;Temp;Humidity;BMP_temperature;BMP_pressure;BME280_temperature;BME280_humidity;BME280_pressure;Samples;Min_cycle;Max_cycle;Signal;HPM_P1;HPM_P2
2021/09/08 00:00:16;;;;;;;3.38;2.50;;;;;;;11.58;80.46;99531.38;5073742;28;20032;-58
2021/09/08 00:02:42;;;;;;;5.50;2.70;;;;;;;11.57;79.93;99527.94;5073320;28;20072;-58
2021/09/08 00:05:09;;;;;;;4.68;2.60;;;;;;;11.61;79.99;99528.25;5073409;28;20045;-60
2021/09/08 00:07:35;;;;;;;5.40;2.75;;;;;;;11.61;79.71;99525.59;5073479;28;20048;-58
2021/09/08 00:10:03;;;;;;;5.65;3.00;;;;;;;11.62;79.96;99526.38;5071754;28;20534;-59
2021/09/08 00:12:29;;;;;;;2.95;2.50;;;;;;;11.57;80.13;99527.94;5073128;28;20442;-58
2021/09/08 00:14:55;;;;;;;4.13;2.60;;;;;;;11.56;79.97;99526.34;5055613;28;20060;-57
2021/09/08 00:17:21;;;;;;;4.93;2.58;;;;;;;11.57;80.13;99529.78;5073273;28;20047;-59
2021/09/08 00:19:46;;;;;;;4.47;2.72;;;;;;;11.54;79.95;99523.09;5073174;28;20071;-59
2021/09/08 00:22:12;;;;;;;4.05;2.80;;;;;;;11.60;80.31;99532.75;5073157;28;20067;-59
2021/09/08 00:24:38;;;;;;;5.63;2.65;;;;;;;11.61;80.05;99525.59;5072994;28;20044;-59
2021/09/08 00:27:15;;;;;;;4.60;2.92;;;;;;;11.59;79.71;99530.34;5056807;28;20052;-57
2021/09/08 00:29:41;;;;;;;7.15;2.80;;;;;;;11.56;79.92;99523.69;5072903;28;20041;-59
2021/09/08 00:32:08;;;;;;;5.70;2.65;;;;;;;11.55;79.35;99531.88;5055082;28;20160;-58
2021/09/08 00:34:35;;;;;;;4.40;2.67;;;;;;;11.52;79.74;99519.88;5071791;28;20037;-58
2021/09/08 00:37:01;;;;;;;3.55;2.55;;;;;;;11.52;79.90;99522.53;5073020;28;20386;-57
2021/09/08 00:39:28;;;;;;;5.03;3.13;;;;;;;11.52;79.39;99522.53;5073030;28;20062;-58
2021/09/08 00:41:54;;;;;;;6.13;2.80;;;;;;;11.47;79.67;99514.50;5072895;28;20071;-58
2021/09/08 00:44:24;;;;;;;4.78;2.95;;;;;;;11.43;79.82;99518.66;5072862;28;20498;-58
2021/09/08 00:46:50;;;;;;;4.20;2.72;;;;;;;11.45;79.88;99515.78;5071423;28;20052;-59
2021/09/08 00:49:16;;;;;;;5.47;2.90;;;;;;;11.43;79.76;99515.22;5072728;28;20044;-59
2021/09/08 00:51:45;;;;;;;5.43;3.03;;;;;;;11.42;79.74;99506.44;5054456;28;20055;-57
2021/09/08 00:54:14;;;;;;;3.03;2.53;;;;;;;11.42;79.58;99513.59;5071154;28;20036;-58
2021/09/08 00:56:43;;;;;;;4.38;2.90;;;;;;;11.41;79.73;99517.28;5071278;28;20075;-57
2021/09/08 00:59:11;;;;;;;5.55;2.92;;;;;;;11.37;79.80;99509.00;5072628;28;20051;-57
2021/09/08 01:01:39;;;;;;;4.43;2.80;;;;;;;11.36;79.73;99510.06;5072479;28;20048;-57
2021/09/08 01:04:05;;;;;;;6.50;2.80;;;;;;;11.36;79.88;99508.22;5072162;28;20431;-57
2021/09/08 01:06:32;;;;;;;9.80;2.92;;;;;;;11.38;79.54;99505.28;5037648;28;20048;-57
2021/09/08 01:09:07;;;;;;;4.47;2.72;;;;;;;11.33;79.85;99514.00;5072438;28;20041;-57
2021/09/08 01:11:35;;;;;;;5.30;2.58;;;;;;;11.31;79.54;99505.47;5072192;28;20097;-58
2021/09/08 01:14:01;;;;;;;7.22;2.80;;;;;;;11.31;79.35;99504.66;5071022;28;20513;-59
2021/09/08 01:16:29;;;;;;;3.40;2.67;;;;;;;11.29;79.45;99499.56;5071826;28;20564;-57
2021/09/08 01:18:55;;;;;;;3.50;2.50;;;;;;;11.29;79.68;99498.78;5072171;28;20483;-58
2021/09/08 01:21:21;;;;;;;3.85;2.45;;;;;;;11.27;79.51;99508.84;5071259;28;20102;-58
2021/09/08 01:23:46;;;;;;;3.83;2.30;;;;;;;11.28;79.44;99505.94;5072087;28;20032;-58
2021/09/08 01:26:12;;;;;;;4.97;2.60;;;;;;;11.27;79.38;99504.34;5071697;28;20390;-58
2021/09/08 01:28:38;;;;;;;3.53;2.58;;;;;;;11.25;79.43;99500.31;5070469;28;20048;-58
2021/09/08 01:31:04;;;;;;;6.20;2.42;;;;;;;11.28;79.27;99510.44;5071892;28;20390;-58
2021/09/08 01:33:31;;;;;;;7.57;2.53;;;;;;;11.29;79.27;99507.53;5037083;28;20063;-58
2021/09/08 01:35:56;;;;;;;3.42;2.20;;;;;;;11.28;79.06;99505.94;5070712;28;20040;-59
2021/09/08 01:38:22;;;;;;;5.57;2.50;;;;;;;11.30;78.68;99503.84;5072050;28;20122;-58
2021/09/08 01:40:48;;;;;;;4.05;2.40;;;;;;;11.32;79.15;99506.25;5070395;28;20101;-60
2021/09/08 01:43:14;;;;;;;4.05;2.35;;;;;;;11.32;79.14;99506.25;5070491;28;20049;-58
2021/09/08 01:45:44;;;;;;;5.20;2.53;;;;;;;11.30;78.85;99506.50;5070599;28;20048;-58
2021/09/08 01:48:10;;;;;;;4.78;2.40;;;;;;;11.30;79.20;99503.06;5070422;28;20048;-59
2021/09/08 01:50:36;;;;;;;6.07;3.03;;;;;;;11.29;78.81;99506.72;5053212;28;20072;-59
2021/09/08 01:53:02;;;;;;;5.53;2.63;;;;;;;11.30;79.11;99508.38;5053416;28;20517;-58
2021/09/08 01:55:27;;;;;;;5.00;2.90;;;;;;;11.30;79.36;99505.72;5071235;28;20039;-58
2021/09/08 01:57:53;;;;;;;9.25;2.83;;;;;;;11.32;79.41;99503.59;5070083;28;20063;-58
2021/09/08 02:00:19;;;;;;;3.78;2.40;;;;;;;11.32;79.81;99507.09;5053428;28;20047;-58
2021/09/08 02:02:45;;;;;;;11.43;5.78;;;;;;;11.31;82.41;99497.50;5071675;28;20048;-58
2021/09/08 02:05:14;;;;;;;4.57;3.13;;;;;;;11.30;82.54;99506.50;5070343;28;20040;-59
2021/09/08 02:07:39;;;;;;;5.63;2.97;;;;;;;11.31;83.21;99500.16;5071431;28;20044;-59
2021/09/08 02:10:06;;;;;;;3.65;2.60;;;;;;;11.31;80.97;99494.84;5071175;28;20051;-58
2021/09/08 02:12:32;;;;;;;5.20;2.80;;;;;;;11.25;81.09;99498.44;5069765;28;20144;-57
2021/09/08 02:14:58;;;;;;;6.22;2.65;;;;;;;11.27;81.74;99498.22;5071252;28;20159;-58
2021/09/08 02:17:24;;;;;;;5.18;2.78;;;;;;;11.23;81.62;99495.22;5071417;28;20048;-58
2021/09/08 02:19:49;;;;;;;4.10;3.03;;;;;;;11.24;81.62;99488.88;5071152;28;20098;-58
2021/09/08 02:22:15;;;;;;;5.28;3.63;;;;;;;11.24;82.15;99486.25;5071303;28;20048;-58
2021/09/08 02:24:41;;;;;;;5.20;3.50;;;;;;;11.22;81.65;99472.41;5071150;28;20456;-58
2021/09/08 02:27:07;;;;;;;4.07;2.70;;;;;;;11.20;81.41;99471.81;5071256;28;20402;-58
2021/09/08 02:29:32;;;;;;;7.97;2.90;;;;;;;11.25;81.47;99479.06;5071023;28;20040;-59
2021/09/08 02:31:58;;;;;;;4.68;2.92;;;;;;;11.27;81.58;99471.69;5071311;28;20041;-57
2021/09/08 02:34:24;;;;;;;6.68;3.10;;;;;;;11.26;81.40;99478.81;5074935;28;20084;-59
2021/09/08 02:36:49;;;;;;;8.32;3.00;;;;;;;11.29;81.17;99469.59;5074898;28;20041;-59
2021/09/08 02:39:15;;;;;;;4.25;2.80;;;;;;;11.26;81.53;99470.06;5073719;28;20040;-59
2021/09/08 02:41:41;;;;;;;4.15;2.88;;;;;;;11.23;81.87;99468.69;5073542;28;20521;-58
2021/09/08 02:44:07;;;;;;;3.67;2.65;;;;;;;11.24;81.16;99472.16;5074042;28;20040;-59
2021/09/08 02:46:33;;;;;;;3.55;2.50;;;;;;;11.19;81.09;99472.06;5056875;28;20041;-58
2021/09/08 02:48:59;;;;;;;3.60;2.60;;;;;;;11.16;81.53;99473.34;5073615;28;20494;-59
2021/09/08 02:51:24;;;;;;;2.67;2.45;;;;;;;11.13;81.22;99471.19;5074729;28;20517;-58
2021/09/08 02:53:50;;;;;;;5.03;2.95;;;;;;;11.08;81.80;99471.09;5074869;28;20048;-60
2021/09/08 02:56:16;;;;;;;4.35;2.83;;;;;;;11.02;81.90;99466.72;5074589;28;20063;-59
2021/09/08 02:58:42;;;;;;;5.28;2.72;;;;;;;11.04;81.68;99470.75;5056614;28;20036;-58
2021/09/08 03:01:10;;;;;;;3.85;2.33;;;;;;;10.96;81.71;99473.00;5074712;28;20106;-58
2021/09/08 03:03:36;;;;;;;3.92;2.63;;;;;;;10.95;81.79;99469.53;5074687;28;20044;-57
2021/09/08 03:06:01;;;;;;;3.40;2.72;;;;;;;10.97;81.59;99470.13;5073200;28;20509;-60
2021/09/08 03:08:27;;;;;;;4.97;2.40;;;;;;;10.96;81.32;99480.94;5072894;28;20048;-57
2021/09/08 03:10:53;;;;;;;4.82;2.55;;;;;;;10.98;80.98;99474.38;5074549;28;20037;-58
2021/09/08 03:13:19;;;;;;;4.65;2.70;;;;;;;11.00;80.49;99477.59;5072906;28;20060;-58
2021/09/08 03:15:46;;;;;;;6.35;2.70;;;;;;;11.04;80.66;99470.75;5074597;28;20238;-58
2021/09/08 03:18:12;;;;;;;5.35;3.03;;;;;;;11.02;80.46;99464.88;5039975;28;20055;-59
2021/09/08 03:20:38;;;;;;;3.90;2.88;;;;;;;11.00;80.72;99463.50;5072694;28;20037;-58
2021/09/08 03:23:04;;;;;;;6.45;2.85;;;;;;;10.98;80.86;99473.56;5055754;28;20464;-58
2021/09/08 03:25:30;;;;;;;6.45;3.03;;;;;;;10.93;80.62;99466.31;5039424;28;20048;-59
2021/09/08 03:27:56;;;;;;;5.57;2.97;;;;;;;10.88;80.69;99467.03;5074540;28;20048;-59
2021/09/08 03:30:22;;;;;;;6.43;3.10;;;;;;;10.87;81.11;99464.59;5074279;28;20044;-58
2021/09/08 03:32:48;;;;;;;4.22;3.00;;;;;;;10.88;81.31;99461.72;5072759;28;20094;-58
2021/09/08 03:35:14;;;;;;;8.15;3.40;;;;;;;10.93;80.80;99460.22;5073010;28;20051;-58
2021/09/08 03:37:39;;;;;;;4.05;3.10;;;;;;;10.95;80.54;99466.88;5074084;28;20098;-58
2021/09/08 03:40:06;;;;;;;4.32;2.92;;;;;;;10.95;80.24;99464.22;5055849;28;20039;-60
2021/09/08 03:42:33;;;;;;;6.15;3.20;;;;;;;10.95;80.44;99458.94;5073653;28;20051;-57
2021/09/08 03:44:59;;;;;;;5.70;3.13;;;;;;;10.94;80.12;99462.59;5071851;28;20085;-58
2021/09/08 03:47:24;;;;;;;5.20;3.13;;;;;;;10.89;80.14;99459.88;5073875;28;20048;-59
2021/09/08 03:49:51;;;;;;;5.13;3.30;;;;;;;10.91;80.17;99461.25;5055687;28;20140;-60
2021/09/08 03:52:17;;;;;;;3.70;2.80;;;;;;;10.93;80.46;99455.69;5073413;28;20506;-57
2021/09/08 03:54:44;;;;;;;5.97;3.15;;;;;;;10.96;80.21;99460.53;5073817;28;20040;-58
2021/09/08 03:57:10;;;;;;;3.95;3.15;;;;;;;11.01;80.27;99457.97;5072188;28;20048;-60
2021/09/08 03:59:37;;;;;;;5.50;3.22;;;;;;;11.03;80.23;99455.91;5055474;28;20051;-59
2021/09/08 04:02:03;;;;;;;3.33;2.92;;;;;;;11.02;79.68;99461.44;5073547;28;20052;-58
2021/09/08 04:04:29;;;;;;;4.85;3.10;;;;;;;11.07;80.04;99462.31;5072138;28;20032;-58
2021/09/08 04:06:56;;;;;;;5.57;2.90;;;;;;;11.11;79.67;99462.66;5073216;28;20044;-59
2021/09/08 04:09:22;;;;;;;5.43;2.88;;;;;;;11.14;79.50;99464.81;5073333;28;20056;-59
2021/09/08 04:11:48;;;;;;;4.28;2.90;;;;;;;11.16;79.35;99459.28;5073116;28;20670;-59
2021/09/08 04:14:14;;;;;;;6.55;3.33;;;;;;;11.20;79.24;99455.09;5071724;28;20052;-57
2021/09/08 04:16:39;;;;;;;6.45;3.10;;;;;;;11.25;78.76;99453.34;5071621;28;20044;-58
2021/09/08 04:19:05;;;;;;;6.85;2.95;;;;;;;11.25;78.50;99458.66;5071457;28;20078;-57
2021/09/08 04:21:31;;;;;;;2.92;2.60;;;;;;;11.30;78.59;99463.25;5071420;28;20041;-57
2021/09/08 04:23:57;;;;;;;3.38;2.58;;;;;;;11.29;78.37;99457.13;5072021;28;20405;-59
2021/09/08 04:26:23;;;;;;;6.85;3.00;;;;;;;11.32;78.52;99454.00;5072848;28;20571;-58
2021/09/08 04:28:49;;;;;;;5.18;3.00;;;;;;;11.34;78.42;99451.91;5054918;28;20044;-57
2021/09/08 04:31:16;;;;;;;4.15;2.83;;;;;;;11.35;78.13;99453.53;5071470;28;20053;-58
2021/09/08 04:33:42;;;;;;;5.25;2.70;;;;;;;11.40;77.36;99452.00;5072575;28;20048;-58
2021/09/08 04:36:08;;;;;;;6.32;2.88;;;;;;;11.44;77.69;99453.09;5071304;28;20048;-58
2021/09/08 04:38:34;;;;;;;5.10;2.70;;;;;;;11.47;77.78;99447.31;5072613;28;20041;-58
2021/09/08 04:40:59;;;;;;;4.90;3.15;;;;;;;11.52;77.42;99453.50;5072562;28;20033;-59
2021/09/08 04:43:25;;;;;;;5.65;3.40;;;;;;;11.58;77.31;99451.75;5071247;28;20510;-58
2021/09/08 04:45:51;;;;;;;3.17;2.70;;;;;;;11.59;76.87;99451.50;5072733;28;20498;-59
2021/09/08 04:48:17;;;;;;;3.83;2.50;;;;;;;11.67;76.63;99444.97;5054658;28;20140;-57
2021/09/08 04:50:43;;;;;;;6.10;3.15;;;;;;;11.72;76.56;99444.25;5071455;28;20448;-59
2021/09/08 04:53:09;;;;;;;4.78;2.55;;;;;;;11.80;76.07;99443.84;5071211;28;20529;-58
2021/09/08 04:55:35;;;;;;;5.80;3.13;;;;;;;11.88;75.80;99445.28;5071779;28;20033;-61
2021/09/08 04:58:01;;;;;;;5.60;3.15;;;;;;;11.90;75.88;99443.22;5070177;28;20075;-57
2021/09/08 05:00:27;;;;;;;6.32;3.15;;;;;;;11.96;75.21;99456.31;5071874;28;20501;-59
2021/09/08 05:02:53;;;;;;;3.90;2.95;;;;;;;11.98;74.87;99442.81;5070812;28;20051;-58
2021/09/08 05:05:19;;;;;;;4.72;2.83;;;;;;;11.97;74.99;99431.38;5070504;28;20414;-59
2021/09/08 05:07:44;;;;;;;4.85;2.88;;;;;;;12.05;74.55;99436.25;5054012;28;20592;-59
2021/09/08 05:10:10;;;;;;;3.85;3.00;;;;;;;12.14;74.76;99441.94;5070533;28;20421;-61
2021/09/08 05:12:36;;;;;;;3.95;2.78;;;;;;;12.24;74.15;99438.63;5071461;28;20122;-59
2021/09/08 05:15:03;;;;;;;4.20;2.85;;;;;;;12.30;73.88;99437.63;5065704;28;20078;-60
2021/09/08 05:17:29;;;;;;;5.55;3.00;;;;;;;12.28;74.10;99437.88;5082061;28;20044;-62
2021/09/08 05:19:56;;;;;;;4.20;3.40;;;;;;;12.28;73.74;99429.09;5050481;28;20094;-62
2021/09/08 05:22:21;;;;;;;7.78;3.08;;;;;;;12.28;73.91;99432.56;5069520;28;20127;-60
2021/09/08 05:24:47;;;;;;;4.57;2.83;;;;;;;12.28;74.17;99431.75;5070364;28;20419;-60
2021/09/08 05:27:13;;;;;;;6.97;3.50;;;;;;;12.31;73.64;99449.88;5067936;28;20052;-61
2021/09/08 05:29:39;;;;;;;5.55;2.90;;;;;;;12.32;73.07;99418.78;5067180;28;20053;-59
2021/09/08 05:32:05;;;;;;;5.00;3.08;;;;;;;12.51;72.96;99436.03;5067282;28;20052;-60
2021/09/08 05:34:31;;;;;;;5.22;3.78;;;;;;;12.62;73.01;99435.09;5065415;28;20537;-61
2021/09/08 05:36:57;;;;;;;7.03;3.20;;;;;;;12.82;72.45;99447.78;5067915;28;20036;-60
2021/09/08 05:39:23;;;;;;;5.68;3.30;;;;;;;12.97;72.02;99436.50;5068320;28;20036;-61
2021/09/08 05:41:53;;;;;;;7.10;3.70;;;;;;;12.92;71.53;99444.44;5066922;28;20044;-60
2021/09/08 05:44:19;;;;;;;5.20;3.10;;;;;;;13.01;71.25;99434.16;5066368;28;20460;-62
2021/09/08 05:46:45;;;;;;;4.70;3.20;;;;;;;13.10;70.85;99433.44;5067529;28;20464;-60
2021/09/08 05:49:12;;;;;;;7.03;2.90;;;;;;;13.23;70.05;99429.53;5066599;28;20159;-60
2021/09/08 05:51:41;;;;;;;4.68;2.88;;;;;;;13.38;69.38;99436.88;5066883;28;20131;-60
2021/09/08 05:54:07;;;;;;;5.75;3.72;;;;;;;13.55;69.40;99442.06;5064037;28;20094;-61
2021/09/08 05:56:34;;;;;;;3.90;2.95;;;;;;;13.59;68.80;99428.00;5069910;28;20508;-60
2021/09/08 05:59:00;;;;;;;4.38;3.08;;;;;;;13.61;68.67;99433.06;5067964;28;20074;-62
2021/09/08 06:01:26;;;;;;;5.10;2.80;;;;;;;13.68;68.50;99432.81;5068629;28;20052;-59
2021/09/08 06:03:52;;;;;;;5.82;3.08;;;;;;;13.74;68.18;99435.28;5064986;28;20527;-62
2021/09/08 06:06:18;;;;;;;5.05;2.90;;;;;;;13.72;68.46;99429.41;5067414;28;20048;-60
2021/09/08 06:08:43;;;;;;;5.93;3.08;;;;;;;13.72;68.08;99429.41;5067245;28;20448;-61
2021/09/08 06:11:10;;;;;;;4.03;2.88;;;;;;;13.60;67.93;99434.13;5067715;28;20887;-59
2021/09/08 06:13:36;;;;;;;4.55;3.03;;;;;;;13.64;68.00;99416.56;5067191;28;20072;-61
2021/09/08 06:16:01;;;;;;;7.65;3.28;;;;;;;13.64;67.34;99422.69;5067552;28;20453;-62
2021/09/08 06:18:27;;;;;;;5.25;3.10;;;;;;;13.60;67.02;99407.50;5068406;28;20040;-60
2021/09/08 06:20:53;;;;;;;5.25;2.60;;;;;;;13.78;66.78;99428.38;5049975;28;20073;-60
2021/09/08 06:23:19;;;;;;;3.40;2.97;;;;;;;13.92;66.08;99423.41;5045121;28;20036;-60
2021/09/08 06:25:45;;;;;;;4.30;2.65;;;;;;;13.94;66.30;99426.63;5068356;28;20040;-61
2021/09/08 06:28:11;;;;;;;4.53;2.90;;;;;;;13.96;66.06;99419.16;5066717;28;20055;-61
2021/09/08 06:30:37;;;;;;;4.18;2.90;;;;;;;13.94;66.08;99423.13;5067617;28;20048;-62
2021/09/08 06:33:02;;;;;;;5.90;3.33;;;;;;;13.90;66.06;99414.06;5066241;28;20436;-61
2021/09/08 06:35:29;;;;;;;7.63;3.20;;;;;;;13.91;65.46;99419.13;5049713;28;20531;-63
2021/09/08 06:37:57;;;;;;;5.18;2.75;;;;;;;13.88;66.46;99426.81;5014928;28;20044;-59
2021/09/08 06:40:23;;;;;;;4.57;3.10;;;;;;;13.90;66.13;99425.50;5066970;28;20037;-60
2021/09/08 06:42:49;;;;;;;8.05;3.03;;;;;;;13.99;65.66;99421.28;5068008;28;20106;-59
2021/09/08 06:45:16;;;;;;;7.10;3.08;;;;;;;14.11;65.40;99417.63;5069118;28;20094;-60
2021/09/08 06:47:42;;;;;;;4.72;2.97;;;;;;;14.16;65.49;99410.44;5066640;28;20083;-60
2021/09/08 06:50:08;;;;;;;3.88;2.72;;;;;;;14.20;65.25;99408.84;5067382;28;20044;-61
2021/09/08 06:52:35;;;;;;;7.20;2.88;;;;;;;14.18;64.93;99415.53;5065822;28;20044;-58
2021/09/08 06:55:02;;;;;;;9.30;3.15;;;;;;;14.12;65.37;99403.22;5083376;28;20036;-61
2021/09/08 06:57:28;;;;;;;5.15;2.65;;;;;;;14.12;65.20;99420.03;5049990;28;20060;-59
2021/09/08 06:59:54;;;;;;;6.45;2.72;;;;;;;14.04;65.02;99418.66;5068414;28;20117;-60
2021/09/08 07:02:20;;;;;;;3.42;2.47;;;;;;;13.98;65.45;99405.56;5049805;28;20101;-58
2021/09/08 07:04:46;;;;;;;7.13;2.90;;;;;;;14.10;65.60;99408.81;5067369;28;20070;-60
2021/09/08 07:07:11;;;;;;;5.07;3.35;;;;;;;14.21;64.51;99405.16;5065513;28;20135;-60
2021/09/08 07:09:37;;;;;;;6.72;3.00;;;;;;;14.39;64.21;99405.75;5068265;28;20037;-60
2021/09/08 07:12:04;;;;;;;4.55;2.53;;;;;;;14.37;64.42;99392.66;5068567;28;20059;-59
2021/09/08 07:14:31;;;;;;;6.85;3.22;;;;;;;14.36;63.98;99406.28;5083300;28;20434;-60
2021/09/08 07:16:57;;;;;;;5.18;2.63;;;;;;;14.42;64.51;99395.34;5066993;28;20218;-59
2021/09/08 07:19:23;;;;;;;4.78;2.53;;;;;;;14.29;64.06;99401.16;5067613;28;20578;-59
2021/09/08 07:21:49;;;;;;;4.40;2.80;;;;;;;14.48;64.20;99406.84;5069531;28;20048;-60
2021/09/08 07:24:15;;;;;;;4.85;2.53;;;;;;;14.48;64.14;99404.19;5070094;28;20171;-61
2021/09/08 07:26:40;;;;;;;5.28;3.10;;;;;;;14.46;64.00;99407.09;5070460;28;20532;-60
2021/09/08 07:29:07;;;;;;;5.22;3.17;;;;;;;14.49;64.24;99403.09;5071329;28;20037;-60
2021/09/08 07:31:33;;;;;;;6.05;3.30;;;;;;;14.57;63.94;99402.63;5070701;28;20087;-60
2021/09/08 07:33:59;;;;;;;10.05;3.42;;;;;;;14.59;63.64;99397.00;5071813;28;20041;-60
2021/09/08 07:36:25;;;;;;;4.72;2.70;;;;;;;14.64;63.33;99400.50;5068876;28;20078;-61
2021/09/08 07:38:52;;;;;;;4.82;3.00;;;;;;;14.52;63.73;99397.28;5072467;28;20436;-61
2021/09/08 07:41:19;;;;;;;5.18;2.83;;;;;;;14.54;63.78;99397.81;5070520;28;20036;-60
2021/09/08 07:43:46;;;;;;;6.03;2.72;;;;;;;14.64;63.09;99386.38;5070077;28;20559;-61
2021/09/08 07:46:12;;;;;;;3.83;2.65;;;;;;;14.72;62.65;99401.84;5070142;28;20041;-60
2021/09/08 07:48:39;;;;;;;5.22;2.75;;;;;;;14.65;62.86;99396.78;5070587;28;20068;-60
2021/09/08 07:51:05;;;;;;;4.03;2.90;;;;;;;14.52;63.51;99392.72;5052954;28;20040;-61
2021/09/08 07:53:31;;;;;;;4.50;2.80;;;;;;;14.55;64.16;99399.41;5068439;28;20398;-59
2021/09/08 07:55:57;;;;;;;5.38;2.90;;;;;;;14.56;63.84;99393.03;5053327;28;20094;-62
2021/09/08 07:58:22;;;;;;;4.85;2.90;;;;;;;14.61;63.64;99400.22;5070686;28;20079;-61
2021/09/08 08:00:48;;;;;;;8.88;3.13;;;;;;;14.57;63.35;99399.16;5070749;28;20082;-61
2021/09/08 08:03:14;;;;;;;6.40;3.08;;;;;;;14.63;63.95;99401.56;5069741;28;20053;-60
2021/09/08 08:05:40;;;;;;;5.85;2.80;;;;;;;14.55;63.62;99404.75;5069116;28;20131;-61
2021/09/08 08:08:06;;;;;;;6.82;2.63;;;;;;;14.42;63.73;99405.22;5068913;28;20033;-61
2021/09/08 08:10:32;;;;;;;4.20;3.03;;;;;;;14.36;64.07;99408.94;5067408;28;20044;-62
2021/09/08 08:12:58;;;;;;;6.18;2.80;;;;;;;14.23;63.98;99407.53;5069250;28;20525;-60
2021/09/08 08:15:24;;;;;;;3.97;2.60;;;;;;;14.22;64.13;99400.63;5068911;28;20059;-61
2021/09/08 08:17:50;;;;;;;5.60;2.80;;;;;;;14.24;64.61;99406.50;5070460;28;20574;-60
2021/09/08 08:20:18;;;;;;;5.40;2.40;;;;;;;14.25;64.61;99392.09;5067122;28;20041;-61
2021/09/08 08:22:44;;;;;;;5.32;2.83;;;;;;;14.43;64.83;99401.47;5066653;28;20044;-60
2021/09/08 08:25:11;;;;;;;5.55;2.88;;;;;;;14.43;64.71;99401.47;5050761;28;20040;-60
2021/09/08 08:27:37;;;;;;;6.03;2.72;;;;;;;14.42;65.08;99403.34;5067483;28;20044;-59
2021/09/08 08:30:05;;;;;;;5.05;2.90;;;;;;;14.42;64.56;99394.56;5067276;28;20047;-62
2021/09/08 08:32:32;;;;;;;4.85;3.22;;;;;;;14.41;64.58;99388.44;5051814;28;20045;-59
2021/09/08 08:34:58;;;;;;;5.07;3.10;;;;;;;14.49;64.12;99390.56;5068923;28;20360;-61
2021/09/08 08:37:24;;;;;;;6.25;2.92;;;;;;;14.45;63.79;99380.69;5068571;28;20391;-60
2021/09/08 08:39:50;;;;;;;5.63;3.10;;;;;;;14.41;64.65;99383.09;5067758;28;20067;-62
2021/09/08 08:42:23;;;;;;;3.20;2.55;;;;;;;14.38;63.98;99383.59;5060935;28;20094;-60
2021/09/08 08:44:50;;;;;;;7.60;3.45;;;;;;;14.27;63.75;99382.78;5069096;28;20086;-59
2021/09/08 08:47:17;;;;;;;4.43;3.00;;;;;;;14.25;64.86;99379.56;5071203;28;20048;-59
2021/09/08 08:49:44;;;;;;;4.63;2.90;;;;;;;14.18;64.48;99375.56;5069656;28;20067;-59
2021/09/08 08:52:10;;;;;;;4.80;3.17;;;;;;;14.13;64.72;99375.53;5070871;28;20146;-62
2021/09/08 08:54:36;;;;;;;5.03;2.70;;;;;;;14.06;65.22;99368.56;5035526;28;20468;-60
2021/09/08 08:57:02;;;;;;;3.30;2.45;;;;;;;13.94;65.52;99365.31;5070090;28;20044;-61
2021/09/08 08:59:28;;;;;;;6.90;3.00;;;;;;;13.94;65.65;99364.50;5067944;28;20040;-63
2021/09/08 09:01:54;;;;;;;4.57;2.53;;;;;;;13.93;65.20;99368.25;5052222;28;20051;-60
2021/09/08 09:04:21;;;;;;;4.72;2.83;;;;;;;13.93;65.47;99370.91;5070117;28;20041;-60
2021/09/08 09:06:49;;;;;;;4.65;2.80;;;;;;;13.79;65.62;99367.91;5068023;28;20073;-62
2021/09/08 09:09:17;;;;;;;6.80;3.05;;;;;;;13.74;66.14;99371.34;5050703;28;20491;-62
2021/09/08 09:11:48;;;;;;;6.20;2.80;;;;;;;13.68;66.60;99359.06;5067586;28;20055;-62
2021/09/08 09:14:15;;;;;;;3.63;2.60;;;;;;;13.73;66.60;99353.75;5065987;28;20059;-62
2021/09/08 09:16:42;;;;;;;4.32;2.80;;;;;;;13.91;66.58;99347.16;5067664;28;20055;-61
2021/09/08 09:19:10;;;;;;;6.15;3.28;;;;;;;14.10;65.89;99350.19;5066393;28;20044;-60
2021/09/08 09:21:36;;;;;;;9.63;3.05;;;;;;;14.29;65.64;99346.00;5067561;28;20442;-60
2021/09/08 09:24:04;;;;;;;6.38;2.72;;;;;;;14.27;64.64;99345.44;5065747;28;20040;-62
2021/09/08 09:26:33;;;;;;;6.00;2.80;;;;;;;14.24;64.40;99339.84;5067958;28;20086;-62
2021/09/08 09:29:09;;;;;;;7.18;2.88;;;;;;;14.23;64.68;99335.56;5065954;28;20045;-59
2021/09/08 09:31:54;;;;;;;4.97;2.80;;;;;;;14.20;65.33;99336.09;5067841;28;20059;-62
2021/09/08 09:34:21;;;;;;;4.32;2.55;;;;;;;14.11;64.46;99335.78;5067233;28;20638;-61
2021/09/08 09:36:55;;;;;;;6.43;3.08;;;;;;;13.97;65.39;99332.00;5066402;28;20056;-63
2021/09/08 09:39:22;;;;;;;5.78;2.97;;;;;;;13.95;65.55;99328.81;5067141;28;20234;-61
2021/09/08 09:41:48;;;;;;;4.30;2.85;;;;;;;13.92;65.44;99329.34;5065383;28;20045;-60
2021/09/08 09:44:15;;;;;;;4.40;2.65;;;;;;;13.90;65.45;99318.94;5067796;28;20048;-61
2021/09/08 09:46:43;;;;;;;6.38;2.80;;;;;;;13.94;66.08;99309.38;5067933;28;20414;-61
2021/09/08 09:49:13;;;;;;;4.95;2.92;;;;;;;13.78;66.23;99307.69;5065993;28;20204;-61
2021/09/08 09:51:40;;;;;;;6.63;2.78;;;;;;;13.69;67.41;99304.72;5067599;28;20048;-60
2021/09/08 09:54:06;;;;;;;5.13;3.10;;;;;;;13.72;67.24;99303.41;5068374;28;20047;-61
2021/09/08 09:56:32;;;;;;;4.95;2.97;;;;;;;13.72;66.81;99300.75;5065235;28;20044;-62
2021/09/08 09:58:58;;;;;;;5.93;3.00;;;;;;;13.81;67.13;99299.97;5065842;28;20040;-62
2021/09/08 10:01:25;;;;;;;4.07;2.88;;;;;;;13.82;66.26;99293.59;5069203;28;20053;-62
2021/09/08 10:03:52;;;;;;;6.22;3.25;;;;;;;13.82;66.23;99301.59;5068206;28;20119;-61
2021/09/08 10:06:18;;;;;;;6.97;3.10;;;;;;;13.79;66.52;99296.75;5066457;28;20090;-61
2021/09/08 10:08:48;;;;;;;5.28;3.35;;;;;;;13.71;66.56;99301.81;5064563;28;20036;-61
2021/09/08 10:11:18;;;;;;;4.40;3.07;;;;;;;13.76;66.69;99297.28;5065780;28;20040;-64
2021/09/08 10:13:50;;;;;;;5.55;3.17;;;;;;;13.81;66.28;99291.19;5064609;28;20283;-61
2021/09/08 10:16:16;;;;;;;4.57;2.85;;;;;;;13.84;66.40;99288.78;5066133;28;20044;-60
2021/09/08 10:18:42;;;;;;;5.30;2.80;;;;;;;13.84;66.23;99286.13;5066316;28;20029;-60
2021/09/08 10:21:19;;;;;;;4.40;3.10;;;;;;;13.90;66.05;99284.28;5066000;28;20051;-61
2021/09/08 10:23:58;;;;;;;5.57;2.95;;;;;;;13.92;66.11;99276.03;5064775;28;20525;-59
2021/09/08 10:26:30;;;;;;;5.72;3.10;;;;;;;13.96;65.77;99274.44;5065387;28;20848;-61
2021/09/08 10:29:05;;;;;;;7.50;3.65;;;;;;;13.92;65.47;99276.03;5065955;28;20044;-60
2021/09/08 10:31:41;;;;;;;5.20;3.08;;;;;;;13.79;66.24;99262.13;5067256;28;20117;-60
2021/09/08 10:34:07;;;;;;;6.18;2.90;;;;;;;13.79;66.34;99262.13;5045770;28;20049;-60
2021/09/08 10:36:34;;;;;;;5.65;2.95;;;;;;;13.71;66.60;99257.31;5044268;28;20072;-60
2021/09/08 10:39:09;;;;;;;5.13;3.03;;;;;;;13.70;66.56;99250.38;5050326;28;20045;-60
2021/09/08 10:41:44;;;;;;;6.05;3.05;;;;;;;13.69;66.66;99255.97;5036219;28;20080;-60
2021/09/08 10:44:12;;;;;;;5.80;3.17;;;;;;;13.70;66.59;99246.91;5047407;28;20044;-61
2021/09/08 10:46:55;;;;;;;5.28;3.03;;;;;;;13.72;66.73;99250.94;5066061;28;20493;-61
2021/09/08 10:49:42;;;;;;;4.97;3.10;;;;;;;13.82;66.79;99258.16;5067722;28;20040;-60
2021/09/08 10:52:32;;;;;;;4.72;3.33;;;;;;;13.91;66.37;99253.09;5066511;28;20223;-62
2021/09/08 10:54:57;;;;;;;6.57;3.30;;;;;;;14.03;66.17;99245.66;5067435;28;20059;-60
2021/09/08 10:57:38;;;;;;;7.60;2.95;;;;;;;14.17;65.49;99244.09;5068807;28;20040;-61
2021/09/08 11:00:05;;;;;;;5.78;3.30;;;;;;;14.37;65.13;99250.53;5071989;28;20043;-58
2021/09/08 11:02:31;;;;;;;4.80;2.97;;;;;;;14.48;64.70;99242.28;5069634;28;20048;-60
2021/09/08 11:05:00;;;;;;;4.50;2.85;;;;;;;14.51;64.85;99244.44;5070171;28;20506;-61
2021/09/08 11:07:26;;;;;;;4.55;3.08;;;;;;;14.68;64.16;99246.84;5050595;28;20425;-60
2021/09/08 11:09:52;;;;;;;4.15;3.15;;;;;;;14.74;63.91;99251.13;5070305;28;20041;-61
2021/09/08 11:12:18;;;;;;;6.95;3.90;;;;;;;14.89;63.70;99252.19;5071934;28;20078;-60
2021/09/08 11:14:49;;;;;;;5.20;3.60;;;;;;;14.97;62.75;99255.09;5053224;28;20044;-60
2021/09/08 11:17:23;;;;;;;3.90;3.00;;;;;;;15.00;63.18;99245.75;5070601;28;20097;-61
2021/09/08 11:19:54;;;;;;;6.18;3.47;;;;;;;15.09;62.53;99246.81;5069149;28;20074;-59
2021/09/08 11:22:20;;;;;;;9.15;2.97;;;;;;;15.19;62.58;99252.09;5068182;28;20044;-60
2021/09/08 11:24:48;;;;;;;6.97;3.20;;;;;;;15.14;63.38;99237.97;5068817;28;20135;-59
2021/09/08 11:27:13;;;;;;;5.97;2.95;;;;;;;15.28;62.04;99243.56;5064024;28;20072;-60
2021/09/08 11:29:39;;;;;;;6.80;3.20;;;;;;;15.43;62.46;99240.81;5068746;28;20447;-62
2021/09/08 11:32:05;;;;;;;4.72;3.30;;;;;;;15.52;61.65;99236.50;5068836;28;20076;-60